Time;durP1;ratioP1;P1;durP2;ratioP2;P2;SDS_P1;SDS_P2;PMS_P1;PMS_P2;Temp;Humidity;BMP_temperature;BMP_pressure;BME280_temperature;BME280_humidity;BME280_pressure;Samples;Min_cycle;Max_cycle;Signal;HPM_P1;HPM_P2
2022/11/05 00:11:11;;;;;;;;;13.50;11.00;;;;;8.52;71.63;101609.44;4865579;29;45482;-78
2022/11/05 00:19:07;;;;;;;;;16.00;13.00;;;;;8.57;71.78;101627.56;4916207;28;46057;-78
2022/11/05 00:27:03;;;;;;;;;15.25;11.75;;;;;8.65;72.31;101632.72;4915704;28;45450;-77
2022/11/05 00:29:28;;;;;;;;;13.00;12.00;;;;;8.61;72.68;101629.28;4915288;28;45930;-77
2022/11/05 00:31:53;;;;;;;;;18.25;11.00;;;;;8.68;72.39;101622.31;4900713;28;68349;-77
2022/11/05 00:34:19;;;;;;;;;12.00;9.50;;;;;8.69;72.77;101621.41;4956075;28;70466;-78
2022/11/05 00:36:44;;;;;;;;;14.50;11.25;;;;;8.75;72.71;101623.13;4960107;28;75522;-77
2022/11/05 00:39:09;;;;;;;;;11.50;10.00;;;;;8.76;72.47;101619.66;4975289;28;73225;-77
2022/11/05 00:41:35;;;;;;;;;13.25;10.75;;;;;8.80;72.36;101622.22;4975344;28;54209;-77
2022/11/05 00:46:44;;;;;;;;;10.75;9.00;;;;;8.76;71.92;101630.03;4976220;28;45809;-78
2022/11/05 00:52:54;;;;;;;;;16.00;9.00;;;;;8.75;72.10;101628.31;4976436;28;45344;-78
2022/11/05 00:54:38;;;;;;;;;11.75;9.50;;;;;8.70;72.27;101625.75;4976185;28;45550;-77
2022/11/05 00:57:04;;;;;;;;;9.75;6.75;;;;;8.72;72.22;101627.47;4974758;28;65749;-78
2022/11/05 00:59:29;;;;;;;;;14.25;7.75;;;;;8.74;71.92;101626.59;4973886;28;70493;-77
2022/11/05 01:01:54;;;;;;;;;11.25;9.00;;;;;8.74;72.00;101631.78;4975167;28;65989;-78
2022/11/05 01:04:19;;;;;;;;;13.00;9.00;;;;;8.75;72.37;101626.59;4975728;28;56104;-77
2022/11/05 01:06:45;;;;;;;;;11.00;9.00;;;;;8.75;72.10;101617.94;4973622;28;73535;-77
2022/11/05 01:09:10;;;;;;;;;10.75;9.50;;;;;8.73;71.86;101623.16;4974888;28;73413;-78
2022/11/05 01:11:35;;;;;;;;;10.25;9.50;;;;;8.70;71.75;101623.16;4975275;28;57314;-78
2022/11/05 01:14:11;;;;;;;;;12.25;9.25;;;;;8.67;71.79;101617.97;4974614;28;45399;-77
2022/11/05 01:16:37;;;;;;;;;9.00;8.75;;;;;8.64;71.57;101615.44;4974624;28;46149;-77
2022/11/05 01:19:03;;;;;;;;;17.50;9.00;;;;;8.62;71.89;101618.03;4975830;28;45313;-78
2022/11/05 01:21:29;;;;;;;;;11.75;9.00;;;;;8.58;71.90;101616.34;4975942;28;45339;-77
2022/11/05 01:23:54;;;;;;;;;12.25;9.00;;;;;8.55;71.22;101615.50;4941553;28;64108;-78
2022/11/05 01:26:19;;;;;;;;;9.50;7.25;;;;;8.48;71.61;101623.28;4975433;28;46306;-77
2022/11/05 01:28:51;;;;;;;;;18.00;9.50;;;;;8.44;71.45;101620.75;4975775;28;45528;-77
2022/11/05 01:31:16;;;;;;;;;12.75;8.25;;;;;8.37;71.80;101627.66;4974667;28;45420;-78
2022/11/05 01:33:41;;;;;;;;;12.00;10.00;;;;;8.30;71.56;101625.94;4975810;28;45289;-77
2022/11/05 01:36:07;;;;;;;;;9.75;8.00;;;;;8.27;71.83;101626.84;4974862;28;66473;-77
2022/11/05 01:38:32;;;;;;;;;12.25;9.25;;;;;8.25;72.11;101636.38;4974967;28;45329;-77
2022/11/05 01:40:58;;;;;;;;;14.25;9.75;;;;;8.21;71.87;101638.97;4977268;28;45477;-78
2022/11/05 01:43:23;;;;;;;;;11.00;8.25;;;;;8.16;71.89;101639.00;4978221;28;69996;-78
2022/11/05 01:45:50;;;;;;;;;10.00;8.00;;;;;8.11;71.85;101630.38;4978787;28;45989;-77
2022/11/05 01:48:20;;;;;;;;;11.50;6.75;;;;;8.10;72.03;101637.31;4977704;28;45475;-77
2022/11/05 01:51:03;;;;;;;;;9.75;8.75;;;;;8.07;71.92;101628.66;4977796;28;45389;-77
2022/11/05 01:54:04;;;;;;;;;11.00;9.00;;;;;7.99;72.17;101620.94;4977377;28;45399;-78
2022/11/05 01:56:51;;;;;;;;;11.50;9.75;;;;;8.01;72.22;101633.91;4976808;28;46709;-77
2022/11/05 01:59:23;;;;;;;;;12.00;8.25;;;;;7.99;72.30;101646.00;4961075;28;45368;-77
2022/11/05 02:01:49;;;;;;;;;8.50;8.50;;;;;7.98;72.45;101641.66;4978882;28;45438;-78
2022/11/05 02:04:29;;;;;;;;;9.25;9.25;;;;;7.95;73.07;101630.44;4977703;28;69459;-77
2022/11/05 02:06:55;;;;;;;;;8.00;8.00;;;;;7.95;73.42;101630.44;4978494;28;46691;-78
2022/11/05 02:09:34;;;;;;;;;15.25;10.00;;;;;7.95;73.25;101621.81;4978142;28;45385;-77
2022/11/05 02:12:00;;;;;;;;;14.75;6.50;;;;;7.93;72.87;101620.94;4977559;28;45350;-77
2022/11/05 02:14:25;;;;;;;;;8.00;8.00;;;;;8.00;72.98;101622.63;4977586;28;67192;-77
2022/11/05 02:17:12;;;;;;;;;10.25;7.00;;;;;8.04;73.06;101620.91;4978003;28;56371;-78
2022/11/05 02:19:44;;;;;;;;;12.75;8.50;;;;;8.02;72.58;101623.50;4960898;28;45358;-77
2022/11/05 02:22:30;;;;;;;;;8.50;7.50;;;;;7.98;72.63;101621.78;4960738;28;45356;-78
2022/11/05 02:25:07;;;;;;;;;8.75;8.00;;;;;7.97;72.56;101624.38;4978410;28;45301;-77
2022/11/05 02:27:51;;;;;;;;;11.25;7.00;;;;;7.93;72.86;101629.59;4960624;28;46593;-77
2022/11/05 02:30:31;;;;;;;;;9.50;7.00;;;;;7.94;72.95;101633.91;4978237;28;45772;-78
2022/11/05 02:33:05;;;;;;;;;11.25;8.25;;;;;7.92;73.36;101640.81;4960902;28;45409;-77
2022/11/05 02:35:57;;;;;;;;;14.25;6.50;;;;;7.92;73.39;101637.38;4960711;28;45465;-76
2022/11/05 02:38:38;;;;;;;;;10.00;8.25;;;;;7.99;73.27;101640.81;4977432;28;46418;-76
2022/11/05 02:41:24;;;;;;;;;11.75;7.00;;;;;7.94;72.95;101631.31;4976692;28;45447;-76
2022/11/05 02:44:04;;;;;;;;;10.00;8.75;;;;;8.01;73.10;101634.75;4960837;28;45292;-76
2022/11/05 02:46:36;;;;;;;;;9.75;8.00;;;;;8.02;73.36;101631.28;4960647;28;45437;-76
2022/11/05 02:49:23;;;;;;;;;10.00;8.00;;;;;8.03;73.41;101627.81;4960501;28;46741;-76
2022/11/05 02:51:48;;;;;;;;;12.00;8.00;;;;;8.05;73.02;101631.25;4976630;28;45711;-75
2022/11/05 02:54:52;;;;;;;;;12.33;10.00;;;;;8.07;73.01;101626.94;4977954;28;45297;-76
2022/11/05 02:57:19;;;;;;;;;9.25;5.00;;;;;8.07;73.11;101623.47;4936481;28;45531;-75
2022/11/05 02:59:45;;;;;;;;;13.25;8.75;;;;;8.10;73.42;101616.56;4936806;28;46285;-76
2022/11/05 03:02:10;;;;;;;;;10.50;8.00;;;;;8.11;73.50;101614.81;4935755;28;69603;-76
2022/11/05 03:04:35;;;;;;;;;7.00;6.00;;;;;8.14;73.56;101610.47;4936779;28;45271;-76
2022/11/05 03:07:09;;;;;;;;;11.75;6.50;;;;;8.18;73.69;101613.91;4936348;28;45334;-76
2022/11/05 03:09:51;;;;;;;;;6.50;6.50;;;;;8.24;73.48;101613.88;4936489;28;47282;-76
2022/11/05 03:12:44;;;;;;;;;12.25;6.00;;;;;8.34;73.52;101612.13;4936571;28;45869;-76
2022/11/05 03:15:22;;;;;;;;;7.75;6.00;;;;;8.34;73.37;101618.16;4936689;28;45359;-76
2022/11/05 03:18:06;;;;;;;;;6.50;6.00;;;;;8.32;73.08;101619.03;4936637;28;45445;-76
2022/11/05 03:20:50;;;;;;;;;8.50;8.00;;;;;8.27;73.23;101626.00;4936034;28;45516;-76
2022/11/05 03:23:35;;;;;;;;;9.00;6.00;;;;;8.19;72.84;101622.56;4936529;28;45806;-76
2022/11/05 03:26:29;;;;;;;;;8.50;5.50;;;;;8.19;73.06;101613.06;4936573;28;45436;-76
2022/11/05 03:29:00;;;;;;;;;10.75;8.00;;;;;8.17;73.04;101609.59;4936439;28;45483;-75
2022/11/05 03:31:28;;;;;;;;;10.50;5.75;;;;;8.14;73.23;101604.44;4936212;28;46433;-76
2022/11/05 03:33:54;;;;;;;;;9.75;7.25;;;;;8.15;72.94;101608.75;4949449;28;45814;-75
2022/11/05 03:36:24;;;;;;;;;5.25;5.25;;;;;8.20;73.29;101624.28;4976589;28;49144;-76
2022/11/05 03:38:52;;;;;;;;;6.00;5.50;;;;;8.24;73.53;101613.88;4977300;28;45396;-75
2022/11/05 03:41:19;;;;;;;;;7.75;4.50;;;;;8.25;73.57;101613.03;4972076;28;45673;-76
2022/11/05 03:43:48;;;;;;;;;5.75;4.75;;;;;8.24;73.37;101607.84;4975923;28;45368;-76
2022/11/05 03:46:25;;;;;;;;;8.25;7.00;;;;;8.24;73.35;101606.09;4975946;28;45337;-76
2022/11/05 03:48:54;;;;;;;;;13.00;6.00;;;;;8.24;73.18;101613.03;4975975;28;45419;-76
2022/11/05 03:51:47;;;;;;;;;8.75;5.00;;;;;8.25;73.51;101606.97;4975308;28;46535;-76
2022/11/05 03:54:13;;;;;;;;;11.25;7.00;;;;;8.28;73.24;101610.44;4975785;28;45309;-76
2022/11/05 03:56:56;;;;;;;;;11.50;8.00;;;;;8.29;73.48;101608.69;4976906;28;45303;-76
2022/11/05 03:59:21;;;;;;;;;5.25;5.25;;;;;8.32;73.44;101614.72;4977075;28;45676;-76
2022/11/05 04:01:47;;;;;;;;;13.25;6.00;;;;;8.37;73.81;101604.31;4958209;28;74474;-76
2022/11/05 04:04:12;;;;;;;;;10.75;8.00;;;;;8.42;73.32;101599.13;4975031;28;45457;-76
2022/11/05 04:14:49;;;;;;;;;4.25;4.25;;;;;8.49;73.22;101608.59;4976521;28;45745;-75
2022/11/05 04:17:14;;;;;;;;;4.25;4.25;;;;;8.52;73.36;101619.84;4976831;28;45348;-76
2022/11/05 04:25:12;;;;;;;;;8.50;7.75;;;;;8.56;73.04;101623.25;4976511;28;45313;-76
2022/11/05 04:27:37;;;;;;;;;2.25;2.00;;;;;8.59;73.20;101632.75;4976643;28;45540;-76
2022/11/05 04:30:19;;;;;;;;;7.50;5.50;;;;;8.60;73.27;101624.97;4976507;28;45352;-76
2022/11/05 04:33:01;;;;;;;;;5.00;5.00;;;;;8.62;73.23;101637.94;4960814;28;46618;-76
2022/11/05 04:35:34;;;;;;;;;11.00;6.00;;;;;8.65;73.42;101632.72;4976268;28;45795;-75
2022/11/05 04:38:00;;;;;;;;;7.75;5.00;;;;;8.67;73.47;101641.34;4976479;28;45437;-75
2022/11/05 04:40:26;;;;;;;;;5.00;5.00;;;;;8.64;73.38;101624.06;4964356;28;45490;-78
2022/11/05 04:42:53;;;;;;;;;5.50;4.00;;;;;8.64;73.24;101620.63;4976329;28;46490;-78
2022/11/05 04:45:18;;;;;;;;;5.50;5.50;;;;;8.63;72.65;101629.25;4974975;28;45703;-75
2022/11/05 04:47:43;;;;;;;;;6.75;4.50;;;;;8.59;73.07;101623.22;4975045;28;68761;-78
2022/11/05 04:50:10;;;;;;;;;6.75;4.75;;;;;8.57;73.19;101630.16;4975599;28;65902;-75
2022/11/05 04:52:36;;;;;;;;;6.75;4.00;;;;;8.49;73.20;101624.19;4976012;28;46340;-78
2022/11/05 04:55:01;;;;;;;;;9.00;6.00;;;;;8.46;73.06;101624.19;4976138;28;45321;-78
2022/11/05 04:57:27;;;;;;;;;5.75;5.75;;;;;8.45;72.96;101627.63;4976128;28;45373;-75
2022/11/05 04:59:53;;;;;;;;;5.50;4.50;;;;;8.46;73.02;101644.94;4975292;28;67092;-78
2022/11/05 05:02:19;;;;;;;;;7.00;5.25;;;;;8.39;72.97;101636.28;4975518;28;46482;-75
2022/11/05 05:04:44;;;;;;;;;6.00;3.25;;;;;8.39;73.19;101633.69;4975790;28;45463;-77
2022/11/05 05:07:10;;;;;;;;;5.00;5.00;;;;;8.37;73.06;101644.97;4975976;28;46797;-75
2022/11/05 05:09:35;;;;;;;;;4.75;4.75;;;;;8.36;73.23;101643.22;4975158;28;69240;-78
2022/11/05 05:12:01;;;;;;;;;8.75;6.00;;;;;8.37;73.41;101660.53;4974799;28;74117;-79
2022/11/05 05:14:26;;;;;;;;;5.50;4.00;;;;;8.33;73.57;101649.28;4975910;28;45352;-78
2022/11/05 05:16:52;;;;;;;;;5.00;5.00;;;;;8.37;73.40;101658.78;4978771;28;45372;-78
2022/11/05 05:19:17;;;;;;;;;11.50;8.75;;;;;8.38;73.57;101655.34;4979514;28;45265;-78
2022/11/05 05:21:42;;;;;;;;;8.50;5.00;;;;;8.36;73.69;101648.41;4979172;28;46471;-78
2022/11/05 05:24:11;;;;;;;;;8.00;6.00;;;;;8.36;73.26;101657.06;4978212;28;73615;-78
2022/11/05 05:26:41;;;;;;;;;9.25;8.00;;;;;8.36;73.61;101651.88;4979339;28;45375;-78
2022/11/05 05:29:08;;;;;;;;;8.00;5.75;;;;;8.35;73.61;101650.16;4979243;28;45614;-78
2022/11/05 05:31:34;;;;;;;;;6.50;6.00;;;;;8.32;73.47;101645.84;4978786;28;45438;-77
2022/11/05 05:33:59;;;;;;;;;9.00;6.00;;;;;8.30;73.44;101650.19;4979085;28;45281;-75
2022/11/05 05:36:24;;;;;;;;;10.50;5.50;;;;;8.26;73.22;101652.78;4978606;28;48216;-77
2022/11/05 05:38:50;;;;;;;;;7.00;4.75;;;;;8.22;73.12;101657.13;4979153;28;45422;-78
2022/11/05 05:41:15;;;;;;;;;8.25;6.50;;;;;8.21;73.23;101658.00;4973535;28;45376;-78
2022/11/05 05:43:40;;;;;;;;;8.75;5.50;;;;;8.18;73.32;101660.59;4978166;28;67587;-78
2022/11/05 05:46:08;;;;;;;;;6.50;5.75;;;;;8.13;73.40;101657.16;4977490;28;45769;-78
2022/11/05 05:48:33;;;;;;;;;5.75;2.50;;;;;8.08;73.35;101661.53;4977787;28;45458;-78
2022/11/05 05:51:05;;;;;;;;;7.00;6.00;;;;;8.03;73.48;101653.75;4977877;28;73053;-78
2022/11/05 05:53:30;;;;;;;;;10.25;6.75;;;;;8.04;73.72;101652.00;4978989;28;45396;-77
2022/11/05 05:55:56;;;;;;;;;7.00;6.50;;;;;8.01;73.47;101646.84;4978864;28;45314;-75
2022/11/05 05:58:23;;;;;;;;;9.75;5.25;;;;;7.98;73.37;101649.44;4978679;28;45571;-78
2022/11/05 06:00:48;;;;;;;;;9.75;7.50;;;;;7.91;73.61;101649.47;4978173;28;47265;-78
2022/11/05 06:03:13;;;;;;;;;8.25;5.75;;;;;7.89;73.76;101647.75;4977640;28;68942;-78
2022/11/05 06:05:39;;;;;;;;;8.75;6.00;;;;;7.86;73.51;101647.78;4977661;28;67016;-77
2022/11/05 06:08:04;;;;;;;;;5.25;4.75;;;;;7.88;73.81;101657.25;4977816;28;66485;-77
2022/11/05 06:10:30;;;;;;;;;6.00;6.00;;;;;7.85;73.97;101652.06;4977875;28;63674;-78
2022/11/05 06:12:58;;;;;;;;;5.00;5.00;;;;;7.82;73.91;101654.69;4977558;28;73011;-78
2022/11/05 06:15:23;;;;;;;;;9.75;6.00;;;;;7.84;73.94;101659.88;4978067;28;45324;-78
2022/11/05 06:17:48;;;;;;;;;3.50;1.50;;;;;7.83;73.95;101664.19;4977655;28;66866;-78
2022/11/05 06:20:14;;;;;;;;;5.25;5.25;;;;;7.87;74.19;101675.41;4977436;28;72939;-78
2022/11/05 06:22:39;;;;;;;;;5.00;5.00;;;;;7.86;73.88;101671.09;4977502;28;67509;-78
2022/11/05 06:25:06;;;;;;;;;9.50;6.00;;;;;7.86;74.50;101677.13;4978403;28;45424;-78
2022/11/05 06:27:31;;;;;;;;;5.00;5.00;;;;;7.82;74.44;101670.25;4977021;28;45400;-78
2022/11/05 06:29:56;;;;;;;;;6.50;5.00;;;;;7.84;74.39;101675.44;4977379;28;63751;-78
2022/11/05 06:32:21;;;;;;;;;5.25;5.25;;;;;7.87;74.29;101686.63;4977207;28;72109;-78
2022/11/05 06:34:47;;;;;;;;;14.25;4.50;;;;;7.90;74.68;101678.00;4977868;28;52553;-78
2022/11/05 06:37:12;;;;;;;;;8.00;5.00;;;;;7.92;74.58;101674.53;4978057;28;45598;-78
2022/11/05 06:39:38;;;;;;;;;9.00;6.00;;;;;7.93;74.63;101670.19;4977958;28;46140;-78
2022/11/05 06:42:03;;;;;;;;;7.50;6.00;;;;;7.92;74.93;101664.16;4977230;28;69400;-78
2022/11/05 06:44:28;;;;;;;;;10.25;5.50;;;;;7.94;74.79;101665.00;4977356;28;53926;-78
2022/11/05 06:46:54;;;;;;;;;6.00;5.00;;;;;8.04;75.17;101680.53;4978186;28;45307;-78
2022/11/05 06:49:23;;;;;;;;;4.00;4.00;;;;;8.07;75.04;101688.31;4978039;28;45342;-78
2022/11/05 06:51:48;;;;;;;;;6.00;3.50;;;;;8.11;74.93;101695.22;4977996;28;45873;-78
2022/11/05 06:54:14;;;;;;;;;5.00;4.25;;;;;8.14;74.74;101687.44;4977983;28;45433;-78
2022/11/05 06:56:39;;;;;;;;;9.00;4.00;;;;;8.21;74.65;101686.53;4976841;28;70337;-78
2022/11/05 06:59:05;;;;;;;;;4.75;4.00;;;;;8.25;74.63;101685.66;4977427;28;46464;-78
2022/11/05 07:01:30;;;;;;;;;6.50;4.75;;;;;8.32;74.91;101683.88;4977748;28;45349;-78
2022/11/05 07:03:56;;;;;;;;;5.00;5.00;;;;;8.32;75.05;101692.53;4977846;28;45241;-77
2022/11/05 07:06:21;;;;;;;;;4.75;4.00;;;;;8.38;74.64;101696.84;4976800;28;67995;-77
2022/11/05 07:08:46;;;;;;;;;4.00;4.00;;;;;8.41;74.72;101701.13;4959342;28;71581;-77
2022/11/05 07:11:12;;;;;;;;;5.00;5.00;;;;;8.45;75.08;101685.59;4977618;28;45336;-77
2022/11/05 07:13:37;;;;;;;;;13.00;6.00;;;;;8.52;74.97;101696.78;4976698;28;60346;-77
2022/11/05 07:16:02;;;;;;;;;7.00;4.75;;;;;8.57;75.08;101696.78;4976678;28;67231;-77
2022/11/05 07:18:28;;;;;;;;;5.75;5.75;;;;;8.59;74.48;101701.09;4977437;28;47095;-77
2022/11/05 07:20:53;;;;;;;;;5.50;4.50;;;;;8.65;74.89;101697.59;4976473;28;73020;-77
2022/11/05 07:23:18;;;;;;;;;7.25;4.00;;;;;8.71;74.76;101693.25;4977674;28;45394;-78
2022/11/05 07:25:44;;;;;;;;;6.50;4.75;;;;;8.76;74.98;101688.00;4977458;28;45419;-77
2022/11/05 07:28:09;;;;;;;;;6.50;4.25;;;;;8.87;74.69;101698.34;4976280;28;65533;-77
2022/11/05 07:30:35;;;;;;;;;8.00;6.00;;;;;8.94;74.65;101694.81;4959953;28;45422;-77
2022/11/05 07:33:01;;;;;;;;;7.50;6.00;;;;;9.01;74.16;101695.66;4976282;28;45422;-77
2022/11/05 07:35:27;;;;;;;;;11.00;9.00;;;;;9.07;74.28;101709.44;4977178;28;45481;-77
2022/11/05 07:37:53;;;;;;;;;6.25;5.00;;;;;9.10;74.34;101706.84;4975498;28;71208;-77
2022/11/05 07:40:20;;;;;;;;;9.50;8.25;;;;;9.17;74.39;101715.44;4976900;28;45937;-77
2022/11/05 07:42:47;;;;;;;;;7.50;4.50;;;;;9.21;74.10;101713.66;4977094;28;45381;-77
2022/11/05 07:45:13;;;;;;;;;6.25;3.00;;;;;9.29;74.02;101714.50;4975979;28;45456;-77
2022/11/05 07:47:48;;;;;;;;;10.25;5.25;;;;;9.35;73.85;101714.44;4977031;28;46299;-77
2022/11/05 07:50:15;;;;;;;;;7.25;3.75;;;;;9.37;73.79;101720.47;4976995;28;45801;-78
2022/11/05 07:52:40;;;;;;;;;4.50;4.50;;;;;9.41;73.98;101713.50;4977289;28;45607;-78
2022/11/05 07:55:06;;;;;;;;;4.50;2.75;;;;;9.45;73.63;101716.09;4992133;28;45469;-78
2022/11/05 07:57:31;;;;;;;;;4.00;2.00;;;;;9.59;73.50;101720.31;4966159;28;46168;-77
2022/11/05 07:59:57;;;;;;;;;4.75;3.50;;;;;9.64;73.27;101713.31;4958408;28;73061;-77
2022/11/05 08:02:22;;;;;;;;;3.25;3.25;;;;;9.76;73.61;101717.53;4976223;28;59531;-77
2022/11/05 08:04:47;;;;;;;;;6.00;5.00;;;;;9.85;73.72;101717.44;4975835;28;70419;-77
2022/11/05 08:07:13;;;;;;;;;6.00;2.75;;;;;9.95;72.83;101726.00;4975972;28;72793;-77
2022/11/05 08:09:38;;;;;;;;;2.00;1.00;;;;;10.03;72.76;101725.06;4975781;28;73021;-78
2022/11/05 08:12:04;;;;;;;;;4.50;3.00;;;;;10.14;72.80;101719.75;4976187;28;49608;-77
2022/11/05 08:14:29;;;;;;;;;3.00;2.50;;;;;10.24;72.71;101723.09;4976717;28;45448;-77
2022/11/05 08:16:56;;;;;;;;;8.25;3.50;;;;;10.26;71.97;101721.31;4975892;28;58412;-77
2022/11/05 08:19:21;;;;;;;;;5.75;4.50;;;;;10.34;72.13;101722.13;4976648;28;45764;-77
2022/11/05 08:21:47;;;;;;;;;11.00;5.25;;;;;10.45;72.30;101724.59;4975704;28;69293;-77
2022/11/05 08:24:12;;;;;;;;;6.50;5.00;;;;;10.52;72.04;101723.63;4975756;28;65322;-77
2022/11/05 08:26:37;;;;;;;;;4.75;3.50;;;;;10.58;71.47;101728.75;4975270;28;71692;-78
2022/11/05 08:29:03;;;;;;;;;5.00;5.00;;;;;10.60;71.35;101726.97;4957917;28;72480;-77
2022/11/05 08:31:29;;;;;;;;;5.00;2.75;;;;;10.62;70.93;101725.25;4975517;28;70529;-77
2022/11/05 08:33:55;;;;;;;;;5.00;4.00;;;;;10.65;70.75;101713.91;4976650;28;45340;-78
2022/11/05 08:36:21;;;;;;;;;6.00;3.50;;;;;10.68;70.72;101713.88;4975999;28;46252;-77
2022/11/05 08:38:46;;;;;;;;;5.50;3.50;;;;;10.75;70.46;101715.50;4975919;28;54489;-78
2022/11/05 08:41:11;;;;;;;;;6.75;3.00;;;;;10.85;70.88;101727.53;4975927;28;45379;-77
2022/11/05 08:43:37;;;;;;;;;7.00;5.75;;;;;10.97;70.62;101736.91;4976405;28;56617;-77
2022/11/05 08:46:02;;;;;;;;;5.75;5.00;;;;;11.09;69.86;101737.59;4975194;28;75630;-77
2022/11/05 08:48:27;;;;;;;;;2.75;2.25;;;;;11.21;69.59;101740.88;4975574;28;61222;-77
2022/11/05 08:50:53;;;;;;;;;5.75;3.00;;;;;11.34;69.49;101738.09;4975396;28;45355;-77
2022/11/05 08:53:19;;;;;;;;;3.50;3.00;;;;;11.40;68.67;101738.84;4976396;28;45401;-76
2022/11/05 08:55:46;;;;;;;;;3.00;3.00;;;;;11.47;68.99;101757.84;4975753;28;45393;-77
2022/11/05 08:58:15;;;;;;;;;4.00;3.00;;;;;11.53;68.85;101755.13;4976095;28;45665;-77
2022/11/05 09:00:44;;;;;;;;;6.00;6.00;;;;;11.70;69.05;101762.69;4976288;28;45984;-77
2022/11/05 09:03:10;;;;;;;;;5.50;2.75;;;;;11.82;68.86;101748.56;4975075;28;45265;-78
2022/11/05 09:05:37;;;;;;;;;2.75;2.00;;;;;11.82;67.75;101752.03;4975867;28;45411;-77
2022/11/05 09:08:07;;;;;;;;;3.00;2.50;;;;;11.81;67.67;101752.06;4975714;28;45743;-78
2022/11/05 09:10:33;;;;;;;;;7.50;4.50;;;;;11.81;67.83;101747.72;4976372;28;45379;-77
2022/11/05 09:12:58;;;;;;;;;6.25;3.00;;;;;11.82;67.31;101748.56;4976035;28;45320;-77
2022/11/05 09:15:24;;;;;;;;;9.00;3.00;;;;;11.89;67.40;101738.91;4975847;28;45352;-77
2022/11/05 09:17:49;;;;;;;;;7.00;3.00;;;;;11.98;67.17;101730.94;4975883;28;45345;-77
2022/11/05 09:20:15;;;;;;;;;5.25;2.25;;;;;12.09;67.32;101736.81;4975966;28;45372;-77
2022/11/05 09:22:40;;;;;;;;;1.75;1.50;;;;;12.20;66.89;101732.22;4975103;28;57128;-78
2022/11/05 09:25:06;;;;;;;;;3.75;2.00;;;;;12.28;66.07;101731.22;4974688;28;73777;-78
2022/11/05 09:27:31;;;;;;;;;5.00;3.00;;;;;12.35;66.17;101733.66;4975671;28;45915;-78
2022/11/05 09:29:57;;;;;;;;;4.50;1.00;;;;;12.46;65.88;101732.56;4975076;28;64607;-78
2022/11/05 09:32:22;;;;;;;;;4.25;1.00;;;;;12.56;65.38;101721.06;4974756;28;70739;-77
2022/11/05 09:34:48;;;;;;;;;3.50;2.50;;;;;12.62;65.36;101720.91;4974539;28;75124;-77
2022/11/05 09:37:14;;;;;;;;;6.75;2.50;;;;;12.72;65.26;101725.06;4975090;28;45674;-78
2022/11/05 09:39:39;;;;;;;;;2.50;2.50;;;;;12.78;64.71;101732.75;4958367;28;45382;-77
2022/11/05 09:42:08;;;;;;;;;3.25;3.00;;;;;12.88;65.20;101730.78;4974980;28;61181;-78
2022/11/05 09:44:44;;;;;;;;;4.25;3.00;;;;;12.98;64.72;101736.66;4975573;28;45362;-77
2022/11/05 09:47:48;;;;;;;;;2.00;1.00;;;;;12.96;63.95;101738.44;4974466;28;45675;-77
2022/11/05 09:50:43;;;;;;;;;1.00;1.00;;;;;12.93;63.70;101739.38;4953842;28;45616;-77
2022/11/05 09:53:14;;;;;;;;;3.00;2.00;;;;;12.86;63.61;101731.72;4945274;28;45484;-77
2022/11/05 09:55:56;;;;;;;;;3.75;1.75;;;;;12.89;63.78;101739.47;4937558;28;46481;-78
2022/11/05 09:58:42;;;;;;;;;2.75;2.75;;;;;12.90;62.68;101746.44;4951151;28;45740;-77
2022/11/05 10:01:13;;;;;;;;;3.25;2.25;;;;;12.85;62.99;101743.94;4935132;28;45264;-77
2022/11/05 10:03:44;;;;;;;;;3.50;2.00;;;;;12.87;62.88;101743.88;4953821;28;45424;-77
2022/11/05 10:06:16;;;;;;;;;2.00;1.00;;;;;12.98;62.79;101742.75;4937122;28;46075;-77
2022/11/05 10:08:43;;;;;;;;;2.00;1.00;;;;;13.09;63.21;101737.28;4937795;28;45409;-77
2022/11/05 10:11:15;;;;;;;;;3.25;1.25;;;;;13.23;62.85;101729.09;4953962;28;45443;-77
2022/11/05 10:13:46;;;;;;;;;3.00;1.00;;;;;13.32;62.60;101725.44;4953798;28;45410;-77
2022/11/05 10:16:34;;;;;;;;;1.75;1.25;;;;;13.33;62.17;101720.19;4937502;28;45445;-77
2022/11/05 10:19:23;;;;;;;;;2.00;2.00;;;;;13.27;62.10;101725.50;4937444;28;45886;-78
2022/11/05 10:21:49;;;;;;;;;0.50;0.50;;;;;13.24;62.49;101717.75;4937262;28;45503;-78
2022/11/05 10:24:18;;;;;;;;;2.75;2.00;;;;;13.26;61.76;101722.94;4959476;28;45437;-77
2022/11/05 10:26:49;;;;;;;;;4.00;2.00;;;;;13.29;62.15;101722.88;4978462;28;45505;-77
2022/11/05 10:29:23;;;;;;;;;3.25;2.75;;;;;13.31;62.25;101731.56;4977199;28;45553;-78
2022/11/05 10:31:52;;;;;;;;;3.50;2.00;;;;;13.36;61.93;101733.16;4977297;28;45305;-77
2022/11/05 10:34:19;;;;;;;;;8.25;4.00;;;;;13.40;61.78;101733.09;4977091;28;45443;-77
2022/11/05 10:36:45;;;;;;;;;13.75;7.00;;;;;13.36;62.19;101732.31;4973053;28;46556;-77
2022/11/05 10:39:16;;;;;;;;;3.75;3.50;;;;;13.33;61.80;101732.38;4973000;28;70361;-78
2022/11/05 10:41:56;;;;;;;;;6.00;3.25;;;;;13.33;61.26;101738.50;4958713;28;45510;-75
2022/11/05 10:44:26;;;;;;;;;3.75;2.00;;;;;13.36;61.29;101745.38;4958848;28;45320;-77
2022/11/05 10:47:19;;;;;;;;;2.75;1.00;;;;;13.42;61.76;101744.38;4957486;28;46546;-78
2022/11/05 10:49:57;;;;;;;;;2.25;1.00;;;;;13.50;61.77;101745.91;4958343;28;45297;-77
2022/11/05 10:52:31;;;;;;;;;1.00;1.00;;;;;13.66;61.50;101748.97;4957569;28;45421;-77
2022/11/05 10:54:59;;;;;;;;;3.50;1.50;;;;;13.65;61.21;101730.69;4957204;28;45445;-77
2022/11/05 10:57:34;;;;;;;;;2.50;2.50;;;;;13.68;60.97;101741.94;4956944;28;45474;-78
2022/11/05 11:00:15;;;;;;;;;5.00;2.00;;;;;13.72;60.88;101738.38;4973468;28;45709;-75
2022/11/05 11:02:42;;;;;;;;;1.00;1.00;;;;;13.71;61.30;101741.88;4958481;28;45448;-77
2022/11/05 11:05:08;;;;;;;;;2.75;2.25;;;;;13.69;61.44;101735.84;4956832;28;45413;-77
2022/11/05 11:07:35;;;;;;;;;3.25;2.00;;;;;13.75;61.72;101733.03;4973379;28;45710;-77
2022/11/05 11:10:00;;;;;;;;;3.00;2.00;;;;;13.80;61.90;101734.69;4958356;28;45729;-75
2022/11/05 11:12:31;;;;;;;;;2.75;2.00;;;;;13.80;60.96;101732.94;4973146;28;45346;-77
2022/11/05 11:15:14;;;;;;;;;1.00;1.00;;;;;13.80;61.56;101735.56;4973094;28;45393;-77
2022/11/05 11:17:39;;;;;;;;;2.25;2.00;;;;;13.78;60.96;101726.88;4956736;28;46640;-77
2022/11/05 11:20:25;;;;;;;;;1.50;0.25;;;;;13.81;61.12;101723.31;4956735;28;73016;-77
2022/11/05 11:23:11;;;;;;;;;1.25;1.25;;;;;13.83;61.01;101730.22;4956987;28;45384;-78
2022/11/05 11:25:55;;;;;;;;;1.50;0.50;;;;;13.87;61.09;101731.88;4958112;28;45394;-77
2022/11/05 11:28:45;;;;;;;;;2.50;1.00;;;;;13.99;61.25;101721.97;4957905;28;46402;-78
2022/11/05 11:31:16;;;;;;;;;3.50;2.25;;;;;14.12;61.31;101718.09;4957513;28;45757;-77
2022/11/05 11:33:44;;;;;;;;;3.00;2.00;;;;;14.26;60.77;101717.69;4972750;28;45457;-77
2022/11/05 11:36:11;;;;;;;;;2.00;1.00;;;;;14.45;59.73;101712.78;4957962;28;45380;-77
2022/11/05 11:38:37;;;;;;;;;3.50;1.00;;;;;14.64;59.95;101714.00;4977090;28;45414;-77
2022/11/05 11:41:07;;;;;;;;;2.00;2.00;;;;;14.88;59.51;101706.28;4975869;28;45489;-78
2022/11/05 11:43:34;;;;;;;;;3.00;1.50;;;;;15.01;58.76;101701.50;4977478;28;45347;-78
2022/11/05 11:46:00;;;;;;;;;2.00;2.00;;;;;15.07;58.91;101696.06;4959967;28;45466;-77
2022/11/05 11:48:28;;;;;;;;;1.75;1.50;;;;;15.09;58.14;101700.34;4959410;28;46670;-78
2022/11/05 11:50:54;;;;;;;;;1.00;1.00;;;;;15.10;57.97;101699.44;4959658;28;45695;-77
2022/11/05 11:53:19;;;;;;;;;1.25;1.00;;;;;15.07;58.11;101696.91;4959773;28;45514;-78
2022/11/05 11:55:53;;;;;;;;;2.00;1.00;;;;;15.11;57.99;101695.06;4977205;28;45364;-75
2022/11/05 11:58:19;;;;;;;;;1.00;1.00;;;;;15.16;57.20;101703.63;4976583;28;47670;-78
2022/11/05 12:00:48;;;;;;;;;2.75;0.00;;;;;15.20;57.55;101701.78;4976112;28;70361;-78
2022/11/05 12:03:32;;;;;;;;;1.25;0.00;;;;;15.34;56.97;101696.06;4959426;28;45399;-78
2022/11/05 12:06:09;;;;;;;;;3.00;1.00;;;;;15.29;55.94;101697.06;4943353;28;45609;-78
2022/11/05 12:08:52;;;;;;;;;0.75;0.75;;;;;15.15;56.36;101694.03;4976888;28;45319;-78
2022/11/05 12:11:29;;;;;;;;;1.00;1.00;;;;;14.94;56.47;101681.63;4976863;28;45388;-78
2022/11/05 12:13:59;;;;;;;;;1.00;1.00;;;;;14.80;57.02;101688.19;4976868;28;45365;-78
2022/11/05 12:16:30;;;;;;;;;1.50;1.50;;;;;14.67;56.88;101686.81;4959459;28;45314;-78
2022/11/05 12:19:25;;;;;;;;;1.00;1.00;;;;;14.49;56.91;101680.38;4976576;28;47250;-78
2022/11/05 12:22:01;;;;;;;;;1.25;1.00;;;;;14.42;57.17;101677.06;4975249;28;45386;-77